Time;durP1;ratioP1;P1;durP2;ratioP2;P2;SDS_P1;SDS_P2;PMS_P1;PMS_P2;Temp;Humidity;BMP_temperature;BMP_pressure;BME280_temperature;BME280_humidity;BME280_pressure;Samples;Min_cycle;Max_cycle;Signal;HPM_P1;HPM_P2
2021/06/19 06:00:57;;;;;;;9.58;6.72;;;;;;;24.43;57.09;100606.61;1780656;75;26326;-68
2021/06/19 06:03:24;;;;;;;8.75;7.20;;;;;;;24.69;56.22;100602.44;1788038;78;26451;-66
2021/06/19 06:05:51;;;;;;;8.35;6.70;;;;;;;24.86;55.16;100607.73;1783145;78;27319;-65
2021/06/19 06:08:17;;;;;;;16.12;6.30;;;;;;;25.01;54.69;100605.72;1762908;78;26256;-65
2021/06/19 06:10:45;;;;;;;10.20;6.05;;;;;;;25.12;53.64;100603.72;1786301;78;26745;-65
2021/06/19 06:13:11;;;;;;;11.57;6.15;;;;;;;25.23;52.78;100599.52;1788839;78;25941;-64
2021/06/19 06:15:37;;;;;;;8.25;5.67;;;;;;;25.30;52.53;100602.27;1786650;78;25909;-64
2021/06/19 06:18:05;;;;;;;7.40;6.12;;;;;;;25.44;52.67;100608.36;1787508;78;27490;-64
2021/06/19 06:20:31;;;;;;;9.68;5.97;;;;;;;25.59;52.31;100602.94;1760317;78;26401;-64
2021/06/19 06:22:58;;;;;;;7.53;5.15;;;;;;;25.75;51.38;100602.43;1758198;78;25960;-65
2021/06/19 06:25:24;;;;;;;13.28;6.05;;;;;;;25.90;50.62;100605.30;1782807;78;26226;-64
2021/06/19 06:27:51;;;;;;;6.05;5.03;;;;;;;26.05;50.11;100610.17;1771650;78;25985;-64
2021/06/19 06:30:19;;;;;;;8.63;6.85;;;;;;;26.17;49.57;100608.89;1760140;79;27288;-64
2021/06/19 06:32:45;;;;;;;9.28;5.70;;;;;;;26.32;49.59;100609.53;1697520;81;25803;-64
2021/06/19 06:35:13;;;;;;;8.98;5.45;;;;;;;26.51;49.08;100613.75;1727705;80;25828;-64
2021/06/19 06:37:41;;;;;;;5.03;4.28;;;;;;;26.68;48.78;100605.09;1715761;81;25744;-64
2021/06/19 06:40:12;;;;;;;5.33;3.98;;;;;;;26.83;47.85;100611.25;1743335;80;26050;-64
2021/06/19 06:42:42;;;;;;;7.03;4.10;;;;;;;26.94;47.68;100608.38;1723421;80;27241;-64
2021/06/19 06:45:11;;;;;;;5.87;3.92;;;;;;;27.09;46.75;100606.20;1707640;81;26566;-64
2021/06/19 06:47:39;;;;;;;6.33;4.00;;;;;;;27.24;47.16;100610.37;1708471;81;25855;-64
2021/06/19 06:50:08;;;;;;;4.33;3.55;;;;;;;27.43;45.78;100613.73;1696379;82;25880;-64
2021/06/19 06:52:35;;;;;;;4.67;4.03;;;;;;;27.53;44.76;100606.66;1748317;79;25924;-64
2021/06/19 06:55:05;;;;;;;6.78;3.90;;;;;;;27.65;44.87;100607.28;1770352;78;27283;-65
2021/06/19 06:57:32;;;;;;;8.18;3.77;;;;;;;27.81;44.42;100601.89;1745552;79;26363;-65
2021/06/19 06:59:59;;;;;;;7.50;4.72;;;;;;;27.95;43.80;100604.47;1768171;78;26529;-65
2021/06/19 07:02:25;;;;;;;5.78;3.65;;;;;;;28.05;42.30;100600.56;1790243;78;25841;-66
2021/06/19 07:04:52;;;;;;;11.70;4.00;;;;;;;28.08;42.24;100598.34;1771082;78;26021;-66
2021/06/19 07:07:18;;;;;;;8.80;3.27;;;;;;;28.19;42.37;100598.92;1758442;78;27303;-67
2021/06/19 07:09:44;;;;;;;4.47;3.95;;;;;;;28.38;42.21;100599.41;1787677;78;25898;-67
2021/06/19 07:12:12;;;;;;;5.65;3.62;;;;;;;28.56;41.79;100595.73;1735496;78;25843;-64
2021/06/19 07:14:39;;;;;;;6.87;3.45;;;;;;;28.77;40.99;100603.50;1752919;79;25857;-66
2021/06/19 07:17:08;;;;;;;6.20;3.72;;;;;;;28.91;41.29;100602.42;1763019;79;26097;-66
2021/06/19 07:19:34;;;;;;;7.57;3.70;;;;;;;29.09;41.31;100609.04;1765649;79;28035;-65
2021/06/19 07:22:01;;;;;;;7.20;3.50;;;;;;;29.34;41.40;100607.94;1757994;79;25914;-66
2021/06/19 07:24:27;;;;;;;8.48;3.45;;;;;;;29.62;40.85;100612.69;1702247;81;25801;-66
2021/06/19 07:26:54;;;;;;;5.90;3.80;;;;;;;29.84;40.64;100610.84;1727866;80;25946;-65
2021/06/19 07:29:21;;;;;;;5.75;3.62;;;;;;;30.08;40.21;100617.03;1729864;79;25922;-66
2021/06/19 07:31:47;;;;;;;6.50;4.03;;;;;;;30.30;39.58;100613.87;1750304;80;27439;-66
2021/06/19 07:34:14;;;;;;;4.50;3.90;;;;;;;30.55;39.47;100618.06;1766903;78;26006;-65
2021/06/19 07:36:43;;;;;;;8.08;4.15;;;;;;;30.76;39.43;100613.12;1769988;78;26003;-69
2021/06/19 07:39:09;;;;;;;10.28;4.05;;;;;;;30.98;38.57;100612.71;1744052;78;26544;-67
2021/06/19 07:41:35;;;;;;;8.63;4.08;;;;;;;31.09;38.25;100611.80;1767347;78;25816;-66
2021/06/19 07:44:02;;;;;;;11.43;3.77;;;;;;;31.24;38.33;100609.34;1742413;78;27489;-67
2021/06/19 07:46:28;;;;;;;6.40;3.62;;;;;;;31.44;37.73;100606.98;1751168;78;26237;-65
2021/06/19 07:48:55;;;;;;;5.20;3.87;;;;;;;31.65;37.64;100599.37;1776833;78;25793;-64
2021/06/19 07:51:21;;;;;;;5.70;4.20;;;;;;;31.90;37.34;100599.17;1779244;79;26507;-69
2021/06/19 07:53:50;;;;;;;10.45;4.08;;;;;;;32.14;36.95;100603.02;1769598;78;25906;-68
2021/06/19 07:56:16;;;;;;;4.33;3.95;;;;;;;32.33;36.37;100596.98;1740292;79;28087;-67
2021/06/19 07:58:42;;;;;;;7.00;4.28;;;;;;;32.47;35.63;100584.50;1764098;78;27188;-68
2021/06/19 08:01:09;;;;;;;8.85;4.17;;;;;;;32.58;35.41;100587.71;1744523;79;25879;-67
2021/06/19 08:03:35;;;;;;;4.83;3.60;;;;;;;32.59;35.35;100590.69;1706302;81;25994;-68
2021/06/19 08:06:02;;;;;;;8.03;4.33;;;;;;;32.72;34.80;100587.21;1721558;81;25796;-68
2021/06/19 08:08:28;;;;;;;7.05;3.90;;;;;;;32.70;34.65;100588.29;1701539;81;27885;-66
2021/06/19 08:10:54;;;;;;;4.35;3.95;;;;;;;32.87;34.63;100592.30;1779057;78;26441;-67
2021/06/19 08:13:21;;;;;;;3.83;3.47;;;;;;;33.04;34.34;100593.66;1793738;78;26501;-68
2021/06/19 08:15:47;;;;;;;5.87;3.87;;;;;;;32.99;33.51;100588.64;1767309;78;26809;-67
2021/06/19 08:18:14;;;;;;;8.08;3.58;;;;;;;32.99;33.96;100585.84;1799755;78;25879;-67
2021/06/19 08:20:40;;;;;;;6.12;3.70;;;;;;;33.13;34.16;100588.72;1785956;78;27293;-68
2021/06/19 08:23:07;;;;;;;7.30;3.90;;;;;;;33.17;33.42;100586.61;1782323;78;26246;-68
2021/06/19 08:25:33;;;;;;;6.67;4.00;;;;;;;33.24;34.04;100591.16;1780170;78;25950;-68
2021/06/19 08:28:00;;;;;;;6.40;4.37;;;;;;;33.61;34.01;100582.88;1741578;78;25684;-67
2021/06/19 08:30:26;;;;;;;4.62;3.65;;;;;;;33.84;33.36;100592.18;1758177;78;25893;-67
2021/06/19 08:32:53;;;;;;;5.12;4.42;;;;;;;33.84;33.36;100592.18;1764630;78;27950;-67
2021/06/19 08:35:19;;;;;;;8.28;4.10;;;;;;;33.93;33.50;100577.39;1766329;78;26854;-67
2021/06/19 08:37:45;;;;;;;6.72;3.47;;;;;;;34.01;33.12;100581.46;1795363;78;25729;-66
2021/06/19 08:40:13;;;;;;;5.65;3.95;;;;;;;34.10;32.87;100593.95;1781503;78;25820;-66
2021/06/19 08:42:40;;;;;;;6.53;4.17;;;;;;;34.14;32.92;100576.33;1782265;78;25833;-65
2021/06/19 08:45:08;;;;;;;7.83;4.30;;;;;;;34.36;33.17;100572.80;1788038;78;27315;-64
2021/06/19 08:47:36;;;;;;;7.28;4.03;;;;;;;34.46;32.97;100572.16;1746724;79;25904;-65
2021/06/19 08:50:12;;;;;;;5.15;3.98;;;;;;;34.40;32.58;100572.02;1782203;78;27677;-66
2021/06/19 08:52:43;;;;;;;9.13;4.58;;;;;;;34.51;33.17;100567.95;1762586;78;26611;-66
2021/06/19 08:55:17;;;;;;;9.65;4.37;;;;;;;34.67;33.27;100574.66;1746062;78;26497;-66
2021/06/19 08:57:45;;;;;;;7.65;4.70;;;;;;;34.61;32.39;100573.08;1730880;78;27245;-67
2021/06/19 09:00:15;;;;;;;10.37;5.40;;;;;;;34.51;33.02;100567.95;1745057;79;26271;-66
2021/06/19 09:02:41;;;;;;;4.17;3.67;;;;;;;34.60;33.06;100567.33;1737601;78;25773;-66
2021/06/19 09:05:13;;;;;;;5.90;4.40;;;;;;;34.69;32.78;100566.53;1789360;78;26349;-66
2021/06/19 09:07:52;;;;;;;5.92;3.80;;;;;;;34.76;32.80;100558.44;1743053;78;25901;-67
2021/06/19 09:10:24;;;;;;;4.65;3.70;;;;;;;34.72;33.04;100560.01;1764818;78;27961;-67
2021/06/19 09:12:58;;;;;;;5.75;4.03;;;;;;;34.93;33.43;100564.49;1765677;78;25716;-67
2021/06/19 09:15:27;;;;;;;9.68;4.20;;;;;;;35.10;32.81;100554.44;1781371;78;25797;-67
2021/06/19 09:18:06;;;;;;;;;;;;;;;34.97;33.04;100561.68;1781733;78;25873;-67
2021/06/19 09:20:41;;;;;;;5.42;3.77;;;;;;;35.08;32.43;100558.36;1771370;78;26374;-67
2021/06/19 09:23:11;;;;;;;6.75;3.92;;;;;;;34.89;32.53;100554.03;1784624;78;28792;-66
2021/06/19 09:25:41;;;;;;;6.03;3.90;;;;;;;34.83;32.92;100559.51;1761643;78;26039;-66
2021/06/19 09:28:09;;;;;;;6.33;4.15;;;;;;;34.84;33.05;100561.69;1792459;78;26013;-67
2021/06/19 09:30:38;;;;;;;4.45;4.05;;;;;;;34.94;33.18;100559.81;1767649;78;25787;-68
2021/06/19 09:33:10;;;;;;;6.78;4.03;;;;;;;35.35;33.29;100552.52;1721054;80;25894;-67
2021/06/19 09:35:41;;;;;;;8.00;4.10;;;;;;;35.43;32.71;100560.73;1684226;81;27165;-67
2021/06/19 09:38:14;;;;;;;8.20;4.25;;;;;;;35.30;32.37;100553.94;1725682;80;25801;-67
2021/06/19 09:40:47;;;;;;;6.12;4.10;;;;;;;35.19;32.87;100552.22;1690617;83;26016;-66
2021/06/19 09:43:23;;;;;;;6.50;4.12;;;;;;;35.51;32.52;100549.93;1729210;80;25974;-67
2021/06/19 09:46:09;;;;;;;5.12;4.10;;;;;;;35.62;32.56;100553.00;1729034;80;26024;-67
2021/06/19 09:48:46;;;;;;;4.37;3.80;;;;;;;35.53;32.05;100539.75;1731648;79;27264;-66
2021/06/19 09:51:25;;;;;;;5.80;3.72;;;;;;;35.51;31.78;100537.27;1724602;80;26129;-70
2021/06/19 09:54:12;;;;;;;5.28;3.55;;;;;;;35.55;32.11;100526.62;1770846;78;25988;-66
2021/06/19 09:56:51;;;;;;;7.50;3.62;;;;;;;35.80;31.52;100539.47;1759204;78;26736;-67
2021/06/19 09:59:38;;;;;;;5.60;3.65;;;;;;;35.70;31.20;100527.45;1790633;78;25866;-66
2021/06/19 10:02:22;;;;;;;4.80;3.50;;;;;;;35.68;31.24;100514.50;1792958;78;27243;-67
2021/06/19 10:04:56;;;;;;;3.87;3.58;;;;;;;35.38;30.47;100529.05;1778285;77;25840;-67
2021/06/19 10:07:26;;;;;;;5.95;3.62;;;;;;;34.81;30.75;100508.64;1770067;78;25948;-66
2021/06/19 10:09:56;;;;;;;8.60;3.80;;;;;;;34.64;31.63;100510.22;1786741;77;26249;-66
2021/06/19 10:12:34;;;;;;;4.60;3.20;;;;;;;34.79;32.14;100508.34;1752595;78;25921;-66
2021/06/19 10:15:12;;;;;;;8.10;3.58;;;;;;;34.97;32.00;100519.53;1777503;78;28681;-66
2021/06/19 10:17:44;;;;;;;3.40;3.20;;;;;;;35.20;31.57;100516.48;1781856;78;25489;-67
2021/06/19 10:20:14;;;;;;;4.45;3.00;;;;;;;35.35;31.82;100518.78;1780734;77;25897;-67
2021/06/19 10:22:44;;;;;;;5.35;4.10;;;;;;;35.29;30.83;100520.03;1766288;77;26201;-67
2021/06/19 10:25:15;;;;;;;4.05;3.67;;;;;;;35.01;30.42;100516.55;1760730;77;25855;-67
2021/06/19 10:27:47;;;;;;;5.72;4.10;;;;;;;34.70;30.74;100520.36;1764471;78;27394;-66
2021/06/19 10:30:16;;;;;;;3.98;3.47;;;;;;;34.50;31.31;100513.06;1794547;77;25493;-65
2021/06/19 10:32:51;;;;;;;12.33;3.75;;;;;;;34.35;31.28;100508.07;1688329;81;25754;-67
2021/06/19 10:35:24;;;;;;;4.95;3.37;;;;;;;34.33;31.30;100516.19;1725921;81;26835;-69
2021/06/19 10:37:52;;;;;;;4.87;3.60;;;;;;;34.13;31.49;100511.02;1730228;80;26929;-69
2021/06/19 10:40:31;;;;;;;6.45;3.50;;;;;;;33.85;31.93;100508.20;1778140;78;27300;-67
2021/06/19 10:43:17;;;;;;;4.65;3.55;;;;;;;33.82;32.45;100512.56;1751265;79;26439;-68
2021/06/19 10:45:46;;;;;;;4.08;3.60;;;;;;;34.12;33.02;100504.46;1784158;78;26533;-67
2021/06/19 10:48:14;;;;;;;;;;;;;;;34.49;32.21;100512.27;1775731;78;26623;-67
2021/06/19 10:50:44;;;;;;;9.13;3.77;;;;;;;34.15;31.63;100498.69;1739572;79;26459;-68
2021/06/19 10:53:47;;;;;;;5.17;4.12;;;;;;;33.71;32.19;100496.80;1723694;79;27318;-67
2021/06/19 10:56:25;;;;;;;7.05;4.03;;;;;;;33.64;32.77;100510.45;1722590;80;26093;-68
2021/06/19 10:59:25;;;;;;;5.37;3.92;;;;;;;33.46;32.92;100484.58;1710985;80;25693;-69
2021/06/19 11:01:55;;;;;;;7.05;4.08;;;;;;;33.68;33.33;100489.47;1704712;81;26181;-68
2021/06/19 11:04:41;;;;;;;8.53;4.97;;;;;;;33.91;32.37;100501.34;1772629;78;25841;-67
2021/06/19 11:07:19;;;;;;;6.35;4.45;;;;;;;33.55;32.48;100493.63;1768720;78;27301;-67
2021/06/19 11:09:48;;;;;;;7.45;4.62;;;;;;;33.24;32.67;100498.68;1759326;77;26548;-67
2021/06/19 11:12:27;;;;;;;4.50;4.03;;;;;;;33.00;33.10;100475.36;1757469;78;26071;-66
2021/06/19 11:14:59;;;;;;;;;;;;;;;33.14;33.67;100478.22;1722944;81;26353;-67
2021/06/19 11:17:36;;;;;;;5.80;4.12;;;;;;;33.58;34.02;100476.66;1719275;80;25893;-67
2021/06/19 11:20:17;;;;;;;6.80;4.85;;;;;;;34.34;32.92;100470.64;1729305;80;28116;-67
2021/06/19 11:22:55;;;;;;;7.50;4.45;;;;;;;34.24;32.55;100479.08;1758942;78;25900;-66
2021/06/19 11:28:24;;;;;;;5.95;4.40;;;;;;;34.07;32.24;100479.20;1738660;79;25863;-66
2021/06/19 11:31:03;;;;;;;9.28;4.58;;;;;;;34.01;32.64;100468.46;1727259;80;25758;-66
2021/06/19 11:33:35;;;;;;;4.70;4.30;;;;;;;34.18;32.36;100479.52;1745373;78;28055;-66
2021/06/19 11:36:07;;;;;;;6.83;4.08;;;;;;;34.36;32.55;100475.95;1748826;78;25906;-67
2021/06/19 11:38:47;;;;;;;6.92;4.03;;;;;;;34.63;32.48;100453.89;1782105;78;26573;-66
2021/06/19 11:41:18;;;;;;;4.83;4.25;;;;;;;35.00;32.08;100459.41;1728000;79;25923;-66
2021/06/19 11:43:45;;;;;;;5.22;3.67;;;;;;;35.06;31.68;100451.27;1733607;80;25696;-66
2021/06/19 11:46:13;;;;;;;4.33;3.92;;;;;;;35.34;31.57;100446.92;1746489;79;27275;-66
2021/06/19 11:48:55;;;;;;;7.72;3.85;;;;;;;35.51;31.36;100448.05;1765387;78;25816;-66
2021/06/19 11:51:27;;;;;;;7.28;4.03;;;;;;;35.73;31.14;100450.45;1785620;78;25859;-67
2021/06/19 11:53:55;;;;;;;5.00;4.03;;;;;;;35.96;30.86;100448.84;1797035;78;26352;-66
2021/06/19 11:56:28;;;;;;;4.62;3.87;;;;;;;36.04;29.97;100450.02;1787565;78;26637;-66
2021/06/19 11:59:05;;;;;;;7.80;3.75;;;;;;;36.13;30.23;100447.11;1706729;81;27315;-67
2021/06/19 12:01:41;;;;;;;6.85;4.40;;;;;;;36.04;30.35;100444.39;1746162;79;25966;-68
2021/06/19 12:04:21;;;;;;;12.85;4.05;;;;;;;36.04;30.11;100442.98;1732718;80;26480;-62
2021/06/19 12:06:55;;;;;;;6.30;3.95;;;;;;;36.08;31.07;100433.10;1681747;83;25798;-68
2021/06/19 12:09:52;;;;;;;5.17;4.22;;;;;;;35.99;30.94;100435.22;1645919;84;26207;-66
2021/06/19 12:12:19;;;;;;;6.50;4.40;;;;;;;35.76;30.83;100436.20;1648988;85;28247;-64
2021/06/19 12:14:45;;;;;;;5.65;4.20;;;;;;;35.35;30.75;100433.03;1657047;85;25891;-66
2021/06/19 12:17:13;;;;;;;4.62;4.10;;;;;;;34.80;31.42;100438.25;1645065;85;26559;-65
2021/06/19 12:19:42;;;;;;;5.53;4.35;;;;;;;34.23;31.48;100435.41;1643608;85;25903;-65
2021/06/19 12:22:15;;;;;;;8.00;4.70;;;;;;;33.76;32.33;100432.44;1638879;84;25914;-66
2021/06/19 12:24:46;;;;;;;18.98;14.07;;;;;;;33.57;33.45;100428.82;1641637;85;27984;-63
2021/06/19 12:27:16;;;;;;;10.38;6.58;;;;;;;33.54;33.93;100426.94;1636160;86;26267;-64
2021/06/19 12:29:59;;;;;;;10.13;6.85;;;;;;;33.40;33.97;100420.55;1607887;87;25870;-64
2021/06/19 12:32:36;;;;;;;10.63;7.55;;;;;;;33.42;34.41;100423.03;1598805;87;26884;-63
2021/06/19 12:35:17;;;;;;;6.08;4.28;;;;;;;33.53;34.39;100443.63;1653375;85;26078;-63
2021/06/19 12:37:54;;;;;;;5.75;4.47;;;;;;;33.38;34.41;100419.61;1658293;84;27309;-63
2021/06/19 12:40:26;;;;;;;6.25;4.60;;;;;;;33.26;34.49;100414.29;1651948;84;27149;-63
2021/06/19 12:43:08;;;;;;;4.92;4.42;;;;;;;33.62;34.94;100448.46;1643175;85;25889;-63
2021/06/19 12:45:43;;;;;;;5.25;3.87;;;;;;;33.49;34.56;100423.35;1684080;83;26017;-64
2021/06/19 12:48:37;;;;;;;9.28;4.50;;;;;;;33.34;34.12;100414.78;1686216;83;25781;-63
2021/06/19 12:51:07;;;;;;;5.47;4.30;;;;;;;33.34;34.46;100408.38;1693713;83;27985;-62
2021/06/19 12:53:37;;;;;;;7.75;4.45;;;;;;;33.62;34.57;100435.84;1668708;83;25793;-78
2021/06/19 12:56:07;;;;;;;4.67;4.35;;;;;;;33.76;34.87;100400.19;1665518;83;25477;-81
2021/06/19 12:58:43;;;;;;;4.55;4.08;;;;;;;34.11;34.47;100405.48;1698111;82;25959;-79
2021/06/19 13:01:26;;;;;;;6.15;4.33;;;;;;;34.21;33.74;100409.09;1701465;82;25755;-76
2021/06/19 13:03:58;;;;;;;4.20;3.80;;;;;;;34.29;33.66;100407.48;1682589;83;26893;-76
2021/06/19 13:06:42;;;;;;;8.13;4.12;;;;;;;34.27;33.31;100408.59;1633853;85;25981;-75
2021/06/19 13:09:12;;;;;;;7.30;3.75;;;;;;;34.28;33.23;100409.39;1645166;85;26581;-78
2021/06/19 13:11:44;;;;;;;6.80;4.60;;;;;;;34.13;33.48;100402.20;1682211;82;26328;-78
2021/06/19 13:14:24;;;;;;;4.62;4.22;;;;;;;33.99;33.53;100405.03;1695716;82;25891;-81
2021/06/19 13:16:51;;;;;;;5.15;3.72;;;;;;;33.82;33.52;100396.16;1680456;83;27339;-78
2021/06/19 13:19:20;;;;;;;4.70;3.80;;;;;;;33.96;34.16;100388.50;1677916;83;25775;-75
2021/06/19 13:21:56;;;;;;;10.03;4.70;;;;;;;34.01;33.92;100400.49;1662372;83;25874;-76
2021/06/19 13:24:32;;;;;;;4.58;3.80;;;;;;;34.00;32.94;100390.53;1690396;83;26322;-78
2021/06/19 13:27:18;;;;;;;6.90;4.25;;;;;;;33.83;33.34;100387.88;1678474;83;25920;-87
2021/06/19 13:30:02;;;;;;;8.50;3.95;;;;;;;34.15;33.37;100397.66;1666723;83;28399;-87
2021/06/19 13:32:29;;;;;;;5.12;4.12;;;;;;;34.15;33.37;100397.66;1687321;83;25939;-89
2021/06/19 13:34:58;;;;;;;5.67;3.90;;;;;;;34.23;32.96;100387.70;1691676;83;25844;-84
2021/06/19 13:37:36;;;;;;;9.08;4.28;;;;;;;33.82;33.42;100389.91;1687050;83;26293;-83
2021/06/19 13:40:07;;;;;;;6.05;4.05;;;;;;;33.82;33.42;100389.91;1685026;83;25764;-90
2021/06/19 13:42:34;;;;;;;3.80;3.42;;;;;;;33.80;33.28;100379.80;1668182;83;27498;-84
2021/06/19 13:45:01;;;;;;;5.85;4.28;;;;;;;33.97;33.51;100385.06;1674734;83;27217;-85
2021/06/19 13:47:27;;;;;;;9.55;3.92;;;;;;;34.15;33.36;100382.23;1670228;84;25749;-88
2021/06/19 13:49:55;;;;;;;5.00;3.95;;;;;;;34.15;33.36;100382.23;1697419;82;26621;-88
2021/06/19 13:52:21;;;;;;;6.72;4.17;;;;;;;34.35;33.00;100385.19;1699131;82;25844;-87
2021/06/19 13:54:48;;;;;;;4.42;4.03;;;;;;;34.24;32.91;100377.25;1685769;83;27320;-89
2021/06/19 13:57:18;;;;;;;4.47;4.08;;;;;;;34.14;32.97;100378.48;1692497;83;26313;-87
2021/06/19 13:59:50;;;;;;;5.72;4.37;;;;;;;33.90;33.08;100368.55;1692562;83;25903;-75
2021/06/19 14:02:17;;;;;;;7.65;4.53;;;;;;;33.85;33.42;100366.55;1700112;82;25724;-72
2021/06/19 14:04:45;;;;;;;8.13;4.22;;;;;;;33.83;33.63;100367.64;1691482;82;26578;-71
2021/06/19 14:07:15;;;;;;;4.85;3.70;;;;;;;33.83;33.65;100366.84;1688692;82;27396;-71
2021/06/19 14:09:42;;;;;;;4.58;3.67;;;;;;;34.05;34.05;100382.09;1695220;82;26217;-71
2021/06/19 14:12:10;;;;;;;5.85;4.00;;;;;;;34.05;34.05;100382.09;1656586;83;26063;-73
2021/06/19 14:14:37;;;;;;;4.28;3.58;;;;;;;33.99;33.94;100367.92;1690914;82;25984;-74
2021/06/19 14:17:05;;;;;;;5.05;3.98;;;;;;;33.92;33.51;100365.45;1645600;85;25735;-74
2021/06/19 14:19:31;;;;;;;6.47;4.33;;;;;;;33.61;33.16;100358.57;1647480;86;27332;-73
2021/06/19 14:21:58;;;;;;;5.28;4.10;;;;;;;33.61;33.16;100358.57;1646421;86;25686;-73
2021/06/19 14:24:25;;;;;;;6.80;4.28;;;;;;;33.59;33.78;100354.83;1649961;86;25964;-73
2021/06/19 14:27:00;;;;;;;8.83;4.58;;;;;;;33.68;33.68;100354.10;1647437;86;26045;-73
2021/06/19 14:29:20;;;;;;;6.55;4.08;;;;;;;33.62;33.42;100361.54;1643078;85;32696;-74
2021/06/19 14:31:46;;;;;;;10.63;4.03;;;;;;;33.34;33.09;100362.14;1678252;83;27084;-70
2021/06/19 14:34:12;;;;;;;4.25;3.95;;;;;;;33.03;33.37;100347.58;1668203;83;25802;-72
2021/06/19 14:36:39;;;;;;;4.83;4.25;;;;;;;32.85;33.84;100352.53;1683108;83;25947;-71
2021/06/19 14:39:08;;;;;;;6.25;4.10;;;;;;;32.87;34.57;100341.64;1684939;83;25792;-73
2021/06/19 14:41:34;;;;;;;7.45;3.75;;;;;;;32.87;34.57;100341.64;1700044;82;26310;-72
2021/06/19 14:44:01;;;;;;;6.28;4.28;;;;;;;32.90;34.18;100343.52;1692890;82;27403;-73
2021/06/19 14:46:28;;;;;;;11.60;4.58;;;;;;;32.91;33.87;100344.45;1700341;82;25704;-73
2021/06/19 14:48:55;;;;;;;6.35;3.72;;;;;;;32.84;33.66;100332.75;1694417;83;26379;-73
2021/06/19 14:51:21;;;;;;;8.70;4.30;;;;;;;32.84;33.68;100334.16;1676060;82;25767;-74
2021/06/19 14:53:48;;;;;;;6.15;4.05;;;;;;;32.84;33.69;100336.33;1691172;82;25770;-74
2021/06/19 14:56:16;;;;;;;5.65;4.20;;;;;;;32.82;33.93;100335.25;1691357;82;27325;-68
2021/06/19 14:58:42;;;;;;;8.08;4.50;;;;;;;32.80;34.01;100334.30;1692077;82;25842;-71
2021/06/19 15:01:09;;;;;;;5.72;4.17;;;;;;;32.79;34.13;100326.36;1653297;84;25808;-71
2021/06/19 15:03:35;;;;;;;8.20;4.10;;;;;;;32.80;34.22;100329.33;1616602;86;25768;-71
2021/06/19 15:06:03;;;;;;;5.45;4.45;;;;;;;32.82;34.47;100325.44;1680663;82;25739;-70
2021/06/19 15:08:32;;;;;;;11.80;4.60;;;;;;;32.85;34.22;100322.50;1705556;82;27932;-71
2021/06/19 15:10:59;;;;;;;5.62;4.12;;;;;;;32.89;33.99;100320.31;1697180;82;26101;-70
2021/06/19 15:13:26;;;;;;;5.97;4.40;;;;;;;32.88;33.48;100327.78;1688277;82;25785;-71
2021/06/19 15:15:53;;;;;;;6.17;3.77;;;;;;;32.79;33.30;100327.77;1682318;82;25851;-72
2021/06/19 15:18:20;;;;;;;4.75;4.45;;;;;;;32.76;33.38;100328.85;1690676;82;25769;-72
2021/06/19 15:20:46;;;;;;;4.17;3.87;;;;;;;32.75;33.54;100321.68;1698677;82;27431;-73
2021/06/19 15:23:17;;;;;;;6.53;4.53;;;;;;;32.76;33.74;100314.08;1697501;82;26395;-70
2021/06/19 15:25:46;;;;;;;5.83;4.00;;;;;;;32.81;33.97;100329.47;1690080;82;25809;-70
2021/06/19 15:28:13;;;;;;;7.87;3.85;;;;;;;32.83;33.56;100325.58;1694596;82;25622;-74
2021/06/19 15:30:42;;;;;;;6.15;4.30;;;;;;;32.86;33.88;100331.67;1682936;82;25954;-72
2021/06/19 15:33:08;;;;;;;5.80;4.20;;;;;;;32.89;34.12;100325.14;1674594;83;26922;-74
2021/06/19 15:35:35;;;;;;;4.28;3.95;;;;;;;32.87;33.95;100322.03;1686693;82;26501;-73
2021/06/19 15:38:03;;;;;;;4.92;4.17;;;;;;;32.87;34.38;100314.41;1669022;83;26654;-73
2021/06/19 15:40:29;;;;;;;6.25;4.08;;;;;;;32.88;34.02;100323.58;1642263;84;26164;-77
2021/06/19 15:43:01;;;;;;;5.42;3.83;;;;;;;32.90;34.01;100327.48;1629287;84;26590;-80
2021/06/19 15:45:27;;;;;;;7.05;3.90;;;;;;;32.84;34.28;100314.55;1702263;82;27421;-82
2021/06/19 15:47:54;;;;;;;7.55;3.77;;;;;;;32.84;34.30;100315.95;1689203;82;26512;-82
2021/06/19 15:50:20;;;;;;;11.88;4.03;;;;;;;32.88;34.36;100306.17;1672104;83;26458;-80
2021/06/19 15:52:48;;;;;;;6.20;5.28;;;;;;;32.89;34.71;100313.94;1686964;82;25713;-81
2021/06/19 15:55:16;;;;;;;8.63;4.55;;;;;;;32.90;34.98;100314.11;1688462;83;25780;-81
2021/06/19 15:57:43;;;;;;;4.20;3.90;;;;;;;32.90;34.65;100309.28;1707173;82;28083;-81
2021/06/19 16:00:11;;;;;;;9.03;4.03;;;;;;;32.83;34.84;100305.98;1690960;83;25540;-82
2021/06/19 16:02:37;;;;;;;6.03;4.33;;;;;;;32.74;35.08;100303.94;1684701;82;25960;-82
2021/06/19 16:05:07;;;;;;;8.35;4.37;;;;;;;32.68;34.89;100303.01;1687642;83;26155;-81
2021/06/19 16:07:33;;;;;;;7.37;4.20;;;;;;;32.61;34.98;100300.47;1680910;82;26408;-82
2021/06/19 16:10:00;;;;;;;6.00;4.47;;;;;;;32.53;35.22;100304.16;1694107;82;27337;-81
2021/06/19 16:12:26;;;;;;;7.10;3.70;;;;;;;32.45;34.97;100302.89;1673856;83;25886;-81
2021/06/19 16:14:53;;;;;;;10.15;4.47;;;;;;;32.34;34.91;100305.48;1696931;82;25800;-81
2021/06/19 16:17:19;;;;;;;6.78;3.95;;;;;;;32.24;34.77;100305.28;1684721;82;25778;-81
2021/06/19 16:19:45;;;;;;;7.30;5.15;;;;;;;32.18;34.98;100304.31;1684042;82;25749;-80
2021/06/19 16:22:12;;;;;;;5.62;4.58;;;;;;;32.11;34.91;100298.37;1685447;82;27107;-80
2021/06/19 16:24:38;;;;;;;6.03;4.12;;;;;;;32.02;35.25;100303.27;1669044;83;25766;-81
2021/06/19 16:27:07;;;;;;;7.08;4.17;;;;;;;31.99;35.50;100295.02;1684174;83;26029;-80
2021/06/19 16:29:36;;;;;;;5.80;4.08;;;;;;;31.96;35.60;100290.33;1695161;82;25897;-81
2021/06/19 16:32:04;;;;;;;7.05;4.40;;;;;;;31.93;35.78;100287.84;1685184;82;25799;-81
2021/06/19 16:34:30;;;;;;;5.60;5.00;;;;;;;31.84;35.79;100282.18;1695978;82;27330;-81
2021/06/19 16:36:57;;;;;;;9.20;5.12;;;;;;;31.73;36.08;100275.59;1699440;82;25769;-81
2021/06/19 16:39:24;;;;;;;8.00;6.45;;;;;;;31.63;36.21;100270.55;1668079;83;25794;-83
2021/06/19 16:41:50;;;;;;;5.92;5.05;;;;;;;31.58;36.51;100268.97;1683929;83;26407;-82
2021/06/19 16:44:17;;;;;;;5.70;4.17;;;;;;;31.53;36.41;100269.55;1644265;85;25845;-80
2021/06/19 16:46:43;;;;;;;5.28;4.40;;;;;;;31.42;36.55;100269.30;1643841;85;28904;-81
2021/06/19 16:49:10;;;;;;;7.20;4.65;;;;;;;31.32;36.75;100269.06;1643860;84;25795;-82
2021/06/19 16:51:37;;;;;;;6.65;4.47;;;;;;;31.24;36.90;100275.50;1642050;84;25924;-79
2021/06/19 16:54:05;;;;;;;7.22;5.40;;;;;;;31.15;37.06;100276.83;1654249;85;25778;-83
2021/06/19 16:56:33;;;;;;;6.50;4.63;;;;;;;31.08;37.25;100275.68;1649267;86;25889;-84
2021/06/19 16:59:00;;;;;;;7.75;5.03;;;;;;;31.04;37.46;100275.01;1616162;86;27397;-79
2021/06/19 17:01:26;;;;;;;6.72;4.60;;;;;;;30.98;37.49;100271.24;1658619;84;25851;-86
2021/06/19 17:03:55;;;;;;;6.28;5.08;;;;;;;30.91;37.70;100275.02;1658198;84;26214;-79
2021/06/19 17:06:22;;;;;;;6.30;5.70;;;;;;;30.83;37.83;100275.86;1698464;83;25778;-85
2021/06/19 17:08:48;;;;;;;8.25;6.40;;;;;;;30.75;38.00;100276.55;1689782;83;25409;-75
2021/06/19 17:11:15;;;;;;;6.53;5.12;;;;;;;30.71;38.32;100275.27;1693316;83;26883;-73
2021/06/19 17:13:41;;;;;;;7.80;4.67;;;;;;;30.68;38.44;100283.14;1682436;83;25869;-73
2021/06/19 17:16:09;;;;;;;7.75;4.97;;;;;;;30.62;38.49;100277.36;1674843;83;25774;-73
2021/06/19 17:18:37;;;;;;;6.78;4.90;;;;;;;30.58;38.78;100274.50;1679133;83;25768;-72
2021/06/19 17:21:06;;;;;;;7.62;5.12;;;;;;;30.51;38.79;100280.50;1690367;83;25997;-75
2021/06/19 17:23:34;;;;;;;11.22;4.85;;;;;;;30.42;38.97;100276.80;1679772;83;27938;-75
2021/06/19 17:26:00;;;;;;;9.75;5.03;;;;;;;30.38;39.21;100278.91;1672012;83;26483;-74
2021/06/19 17:28:29;;;;;;;9.45;5.35;;;;;;;30.31;39.33;100279.91;1677385;82;25990;-77
2021/06/19 17:30:59;;;;;;;10.05;5.70;;;;;;;30.27;39.42;100282.02;1687185;83;25826;-76
2021/06/19 17:33:27;;;;;;;9.85;5.62;;;;;;;30.23;39.80;100277.94;1671932;83;25832;-71
2021/06/19 17:35:54;;;;;;;9.08;5.10;;;;;;;30.21;39.88;100288.77;1647835;84;28741;-70
2021/06/19 17:38:25;;;;;;;6.90;5.17;;;;;;;30.16;39.97;100285.91;1688765;82;25807;-74
2021/06/19 17:40:52;;;;;;;9.03;5.75;;;;;;;30.11;40.12;100286.45;1660196;83;26011;-75